sensor_id;sensor_type;location;lat;lon;timestamp;P1;durP1;ratioP1;P2;durP2;ratioP2
52898;SDS011;38763;53.096;6.062;2023-08-12T00:01:48;9.40;;;3.33;;
52898;SDS011;38763;53.096;6.062;2023-08-12T00:04:14;7.47;;;3.30;;
52898;SDS011;38763;53.096;6.062;2023-08-12T00:06:41;6.50;;;3.10;;
52898;SDS011;38763;53.096;6.062;2023-08-12T00:09:07;9.38;;;3.15;;
52898;SDS011;38763;53.096;6.062;2023-08-12T00:11:36;8.40;;;3.03;;
52898;SDS011;38763;53.096;6.062;2023-08-12T00:14:02;7.70;;;3.08;;
52898;SDS011;38763;53.096;6.062;2023-08-12T00:16:28;8.05;;;3.20;;
52898;SDS011;38763;53.096;6.062;2023-08-12T00:18:53;7.70;;;3.20;;
52898;SDS011;38763;53.096;6.062;2023-08-12T00:21:19;9.75;;;3.03;;
52898;SDS011;38763;53.096;6.062;2023-08-12T00:23:45;6.72;;;3.08;;
52898;SDS011;38763;53.096;6.062;2023-08-12T00:26:12;6.85;;;3.15;;
52898;SDS011;38763;53.096;6.062;2023-08-12T00:28:38;7.50;;;3.40;;
52898;SDS011;38763;53.096;6.062;2023-08-12T00:31:04;8.45;;;3.25;;
52898;SDS011;38763;53.096;6.062;2023-08-12T00:33:30;7.07;;;3.35;;
52898;SDS011;38763;53.096;6.062;2023-08-12T00:35:55;8.82;;;3.47;;
52898;SDS011;38763;53.096;6.062;2023-08-12T00:38:21;8.02;;;3.88;;
52898;SDS011;38763;53.096;6.062;2023-08-12T00:40:47;9.50;;;4.13;;
52898;SDS011;38763;53.096;6.062;2023-08-12T00:43:13;7.88;;;3.65;;
52898;SDS011;38763;53.096;6.062;2023-08-12T00:45:39;7.53;;;3.90;;
52898;SDS011;38763;53.096;6.062;2023-08-12T00:48:06;9.65;;;3.58;;
52898;SDS011;38763;53.096;6.062;2023-08-12T00:50:33;9.70;;;3.65;;
52898;SDS011;38763;53.096;6.062;2023-08-12T00:53:00;8.77;;;4.07;;
52898;SDS011;38763;53.096;6.062;2023-08-12T00:55:26;10.07;;;4.10;;
52898;SDS011;38763;53.096;6.062;2023-08-12T00:57:52;9.13;;;3.85;;
52898;SDS011;38763;53.096;6.062;2023-08-12T01:00:17;10.00;;;4.00;;
52898;SDS011;38763;53.096;6.062;2023-08-12T01:02:46;7.85;;;3.90;;
52898;SDS011;38763;53.096;6.062;2023-08-12T01:05:14;11.07;;;4.68;;
52898;SDS011;38763;53.096;6.062;2023-08-12T01:07:40;7.32;;;4.47;;
52898;SDS011;38763;53.096;6.062;2023-08-12T01:10:07;7.40;;;3.92;;
52898;SDS011;38763;53.096;6.062;2023-08-12T01:12:37;10.85;;;4.53;;
52898;SDS011;38763;53.096;6.062;2023-08-12T01:15:17;11.48;;;4.35;;
52898;SDS011;38763;53.096;6.062;2023-08-12T01:17:46;8.73;;;4.00;;
52898;SDS011;38763;53.096;6.062;2023-08-12T01:20:17;10.70;;;4.85;;
52898;SDS011;38763;53.096;6.062;2023-08-12T01:22:49;8.30;;;4.30;;
52898;SDS011;38763;53.096;6.062;2023-08-12T01:27:51;9.68;;;4.28;;
52898;SDS011;38763;53.096;6.062;2023-08-12T01:30:16;9.63;;;4.72;;
52898;SDS011;38763;53.096;6.062;2023-08-12T01:35:43;8.90;;;4.53;;
52898;SDS011;38763;53.096;6.062;2023-08-12T01:38:18;10.60;;;4.53;;
52898;SDS011;38763;53.096;6.062;2023-08-12T01:40:45;10.85;;;4.93;;
52898;SDS011;38763;53.096;6.062;2023-08-12T01:43:13;8.80;;;4.75;;
52898;SDS011;38763;53.096;6.062;2023-08-12T01:45:40;9.50;;;4.45;;
52898;SDS011;38763;53.096;6.062;2023-08-12T01:48:06;10.05;;;5.15;;
52898;SDS011;38763;53.096;6.062;2023-08-12T01:50:32;11.30;;;5.40;;
52898;SDS011;38763;53.096;6.062;2023-08-12T01:52:58;9.65;;;4.85;;
52898;SDS011;38763;53.096;6.062;2023-08-12T01:55:23;10.75;;;5.03;;
52898;SDS011;38763;53.096;6.062;2023-08-12T01:57:49;12.05;;;5.70;;
52898;SDS011;38763;53.096;6.062;2023-08-12T02:00:15;14.23;;;6.30;;
52898;SDS011;38763;53.096;6.062;2023-08-12T02:02:40;12.77;;;6.18;;
52898;SDS011;38763;53.096;6.062;2023-08-12T02:05:07;13.00;;;6.28;;
52898;SDS011;38763;53.096;6.062;2023-08-12T02:07:32;11.23;;;5.40;;
52898;SDS011;38763;53.096;6.062;2023-08-12T02:09:58;13.45;;;5.97;;
52898;SDS011;38763;53.096;6.062;2023-08-12T02:12:24;11.82;;;5.82;;
52898;SDS011;38763;53.096;6.062;2023-08-12T02:14:49;11.30;;;5.72;;
52898;SDS011;38763;53.096;6.062;2023-08-12T02:17:15;12.43;;;6.10;;
52898;SDS011;38763;53.096;6.062;2023-08-12T02:19:41;10.27;;;5.57;;
52898;SDS011;38763;53.096;6.062;2023-08-12T02:22:06;11.82;;;5.43;;
52898;SDS011;38763;53.096;6.062;2023-08-12T02:24:32;10.10;;;5.60;;
52898;SDS011;38763;53.096;6.062;2023-08-12T02:26:57;12.80;;;5.78;;
52898;SDS011;38763;53.096;6.062;2023-08-12T02:29:23;10.35;;;5.65;;
52898;SDS011;38763;53.096;6.062;2023-08-12T02:31:49;14.07;;;6.30;;
52898;SDS011;38763;53.096;6.062;2023-08-12T02:34:14;13.18;;;5.90;;
52898;SDS011;38763;53.096;6.062;2023-08-12T02:36:40;10.52;;;5.70;;
52898;SDS011;38763;53.096;6.062;2023-08-12T02:39:05;10.40;;;5.32;;
52898;SDS011;38763;53.096;6.062;2023-08-12T02:41:31;10.27;;;5.47;;
52898;SDS011;38763;53.096;6.062;2023-08-12T02:43:57;11.80;;;5.15;;
52898;SDS011;38763;53.096;6.062;2023-08-12T02:46:22;12.02;;;5.55;;
52898;SDS011;38763;53.096;6.062;2023-08-12T02:48:50;11.45;;;5.57;;
52898;SDS011;38763;53.096;6.062;2023-08-12T02:51:16;10.35;;;5.90;;
52898;SDS011;38763;53.096;6.062;2023-08-12T02:53:42;12.40;;;6.00;;
52898;SDS011;38763;53.096;6.062;2023-08-12T02:56:07;12.43;;;5.90;;
52898;SDS011;38763;53.096;6.062;2023-08-12T02:58:33;10.52;;;5.78;;
52898;SDS011;38763;53.096;6.062;2023-08-12T03:00:59;10.90;;;5.35;;
52898;SDS011;38763;53.096;6.062;2023-08-12T03:03:25;9.93;;;5.72;;
52898;SDS011;38763;53.096;6.062;2023-08-12T03:05:50;12.55;;;6.38;;
52898;SDS011;38763;53.096;6.062;2023-08-12T03:08:16;14.05;;;6.38;;
52898;SDS011;38763;53.096;6.062;2023-08-12T03:10:41;14.40;;;6.30;;
52898;SDS011;38763;53.096;6.062;2023-08-12T03:13:07;13.80;;;6.30;;
52898;SDS011;38763;53.096;6.062;2023-08-12T03:15:33;15.55;;;6.32;;
52898;SDS011;38763;53.096;6.062;2023-08-12T03:17:59;13.63;;;6.57;;
52898;SDS011;38763;53.096;6.062;2023-08-12T03:20:25;13.85;;;6.78;;
52898;SDS011;38763;53.096;6.062;2023-08-12T03:22:50;14.18;;;7.05;;
52898;SDS011;38763;53.096;6.062;2023-08-12T03:25:16;19.95;;;7.25;;
52898;SDS011;38763;53.096;6.062;2023-08-12T03:27:42;12.43;;;6.78;;
52898;SDS011;38763;53.096;6.062;2023-08-12T03:30:07;14.57;;;6.63;;
52898;SDS011;38763;53.096;6.062;2023-08-12T03:32:34;14.80;;;7.25;;
52898;SDS011;38763;53.096;6.062;2023-08-12T03:34:59;14.25;;;7.35;;
52898;SDS011;38763;53.096;6.062;2023-08-12T03:37:25;13.00;;;6.72;;
52898;SDS011;38763;53.096;6.062;2023-08-12T03:39:51;15.38;;;7.10;;
52898;SDS011;38763;53.096;6.062;2023-08-12T03:42:17;19.00;;;7.28;;
52898;SDS011;38763;53.096;6.062;2023-08-12T03:44:43;16.90;;;7.07;;
52898;SDS011;38763;53.096;6.062;2023-08-12T03:47:09;13.45;;;6.40;;
52898;SDS011;38763;53.096;6.062;2023-08-12T03:49:35;13.32;;;7.03;;
52898;SDS011;38763;53.096;6.062;2023-08-12T03:52:01;13.80;;;6.85;;
52898;SDS011;38763;53.096;6.062;2023-08-12T03:54:27;13.68;;;6.88;;
52898;SDS011;38763;53.096;6.062;2023-08-12T03:56:53;13.32;;;6.32;;
52898;SDS011;38763;53.096;6.062;2023-08-12T03:59:18;13.23;;;6.53;;
52898;SDS011;38763;53.096;6.062;2023-08-12T04:01:44;13.35;;;6.78;;
52898;SDS011;38763;53.096;6.062;2023-08-12T04:04:10;14.25;;;7.35;;
52898;SDS011;38763;53.096;6.062;2023-08-12T04:06:36;13.40;;;6.85;;
52898;SDS011;38763;53.096;6.062;2023-08-12T04:09:02;11.65;;;6.60;;
52898;SDS011;38763;53.096;6.062;2023-08-12T04:11:28;13.20;;;6.95;;
52898;SDS011;38763;53.096;6.062;2023-08-12T04:13:53;12.90;;;7.10;;
52898;SDS011;38763;53.096;6.062;2023-08-12T04:16:19;11.90;;;6.38;;
52898;SDS011;38763;53.096;6.062;2023-08-12T04:18:45;12.18;;;6.75;;
52898;SDS011;38763;53.096;6.062;2023-08-12T04:21:10;12.50;;;6.35;;
52898;SDS011;38763;53.096;6.062;2023-08-12T04:23:36;17.38;;;7.10;;
52898;SDS011;38763;53.096;6.062;2023-08-12T04:26:01;12.40;;;6.50;;
52898;SDS011;38763;53.096;6.062;2023-08-12T04:28:27;12.95;;;6.40;;
52898;SDS011;38763;53.096;6.062;2023-08-12T04:30:53;15.07;;;7.22;;
52898;SDS011;38763;53.096;6.062;2023-08-12T04:33:18;9.50;;;6.13;;
52898;SDS011;38763;53.096;6.062;2023-08-12T04:35:47;13.50;;;6.28;;
52898;SDS011;38763;53.096;6.062;2023-08-12T04:38:12;13.00;;;6.82;;
52898;SDS011;38763;53.096;6.062;2023-08-12T04:40:39;14.00;;;7.03;;
52898;SDS011;38763;53.096;6.062;2023-08-12T04:43:05;13.90;;;7.25;;
52898;SDS011;38763;53.096;6.062;2023-08-12T04:45:31;13.88;;;6.47;;
52898;SDS011;38763;53.096;6.062;2023-08-12T04:47:57;13.27;;;6.88;;
52898;SDS011;38763;53.096;6.062;2023-08-12T04:50:23;12.73;;;6.43;;
52898;SDS011;38763;53.096;6.062;2023-08-12T04:52:48;13.27;;;6.47;;
52898;SDS011;38763;53.096;6.062;2023-08-12T04:55:14;12.73;;;6.53;;
52898;SDS011;38763;53.096;6.062;2023-08-12T04:57:40;13.98;;;6.47;;
52898;SDS011;38763;53.096;6.062;2023-08-12T05:00:06;11.85;;;6.22;;
52898;SDS011;38763;53.096;6.062;2023-08-12T05:02:33;12.35;;;6.82;;
52898;SDS011;38763;53.096;6.062;2023-08-12T05:04:59;13.07;;;6.82;;
52898;SDS011;38763;53.096;6.062;2023-08-12T05:07:25;16.13;;;6.88;;
52898;SDS011;38763;53.096;6.062;2023-08-12T05:09:51;12.43;;;6.45;;
52898;SDS011;38763;53.096;6.062;2023-08-12T05:12:17;12.60;;;6.82;;
52898;SDS011;38763;53.096;6.062;2023-08-12T05:14:43;11.20;;;6.15;;
52898;SDS011;38763;53.096;6.062;2023-08-12T05:17:08;12.15;;;6.28;;
52898;SDS011;38763;53.096;6.062;2023-08-12T05:19:34;13.60;;;6.57;;
52898;SDS011;38763;53.096;6.062;2023-08-12T05:22:00;12.73;;;6.28;;
52898;SDS011;38763;53.096;6.062;2023-08-12T05:24:25;11.13;;;5.47;;
52898;SDS011;38763;53.096;6.062;2023-08-12T05:26:51;12.27;;;6.22;;
52898;SDS011;38763;53.096;6.062;2023-08-12T05:29:16;10.57;;;6.50;;
52898;SDS011;38763;53.096;6.062;2023-08-12T05:31:42;13.02;;;6.22;;
52898;SDS011;38763;53.096;6.062;2023-08-12T05:34:08;16.58;;;7.30;;
52898;SDS011;38763;53.096;6.062;2023-08-12T05:36:33;14.82;;;6.80;;
52898;SDS011;38763;53.096;6.062;2023-08-12T05:39:00;14.90;;;6.47;;
52898;SDS011;38763;53.096;6.062;2023-08-12T05:41:26;11.55;;;6.47;;
52898;SDS011;38763;53.096;6.062;2023-08-12T05:43:51;11.95;;;6.47;;
52898;SDS011;38763;53.096;6.062;2023-08-12T05:46:17;12.32;;;6.50;;
52898;SDS011;38763;53.096;6.062;2023-08-12T05:48:42;14.10;;;6.75;;
52898;SDS011;38763;53.096;6.062;2023-08-12T05:51:08;14.50;;;7.18;;
52898;SDS011;38763;53.096;6.062;2023-08-12T05:53:34;17.20;;;7.18;;
52898;SDS011;38763;53.096;6.062;2023-08-12T05:55:59;15.52;;;7.60;;
52898;SDS011;38763;53.096;6.062;2023-08-12T05:58:25;14.25;;;7.68;;
52898;SDS011;38763;53.096;6.062;2023-08-12T06:00:51;13.80;;;7.65;;
52898;SDS011;38763;53.096;6.062;2023-08-12T06:03:16;18.52;;;8.50;;
52898;SDS011;38763;53.096;6.062;2023-08-12T06:05:44;14.45;;;7.88;;
52898;SDS011;38763;53.096;6.062;2023-08-12T06:08:11;14.18;;;7.95;;
52898;SDS011;38763;53.096;6.062;2023-08-12T06:10:37;20.65;;;8.38;;
52898;SDS011;38763;53.096;6.062;2023-08-12T06:13:03;14.80;;;8.30;;
52898;SDS011;38763;53.096;6.062;2023-08-12T06:15:29;22.98;;;8.95;;
52898;SDS011;38763;53.096;6.062;2023-08-12T06:17:55;16.40;;;7.88;;
52898;SDS011;38763;53.096;6.062;2023-08-12T06:20:20;15.95;;;9.10;;
52898;SDS011;38763;53.096;6.062;2023-08-12T06:22:46;17.00;;;8.70;;
52898;SDS011;38763;53.096;6.062;2023-08-12T06:25:12;17.48;;;8.55;;
52898;SDS011;38763;53.096;6.062;2023-08-12T06:27:37;19.73;;;8.98;;
52898;SDS011;38763;53.096;6.062;2023-08-12T06:30:03;22.70;;;9.35;;
52898;SDS011;38763;53.096;6.062;2023-08-12T06:32:30;17.25;;;9.43;;
52898;SDS011;38763;53.096;6.062;2023-08-12T06:34:55;16.55;;;9.57;;
52898;SDS011;38763;53.096;6.062;2023-08-12T06:37:21;21.02;;;10.30;;
52898;SDS011;38763;53.096;6.062;2023-08-12T06:39:47;19.48;;;9.48;;
52898;SDS011;38763;53.096;6.062;2023-08-12T06:42:12;20.77;;;10.07;;
52898;SDS011;38763;53.096;6.062;2023-08-12T06:44:38;17.35;;;10.38;;
52898;SDS011;38763;53.096;6.062;2023-08-12T06:47:04;19.75;;;9.98;;
52898;SDS011;38763;53.096;6.062;2023-08-12T06:49:29;20.92;;;10.68;;
52898;SDS011;38763;53.096;6.062;2023-08-12T06:51:55;17.80;;;9.90;;
52898;SDS011;38763;53.096;6.062;2023-08-12T06:54:20;18.98;;;10.68;;
52898;SDS011;38763;53.096;6.062;2023-08-12T06:56:48;19.20;;;10.80;;
52898;SDS011;38763;53.096;6.062;2023-08-12T06:59:14;20.23;;;10.15;;
52898;SDS011;38763;53.096;6.062;2023-08-12T07:01:40;21.67;;;11.55;;
52898;SDS011;38763;53.096;6.062;2023-08-12T07:04:05;19.23;;;11.50;;
52898;SDS011;38763;53.096;6.062;2023-08-12T07:06:31;19.23;;;10.48;;
52898;SDS011;38763;53.096;6.062;2023-08-12T07:08:56;19.08;;;10.60;;
52898;SDS011;38763;53.096;6.062;2023-08-12T07:11:22;19.85;;;11.77;;
52898;SDS011;38763;53.096;6.062;2023-08-12T07:13:48;24.00;;;12.10;;
52898;SDS011;38763;53.096;6.062;2023-08-12T07:16:13;23.80;;;12.43;;
52898;SDS011;38763;53.096;6.062;2023-08-12T07:18:39;22.30;;;12.20;;
52898;SDS011;38763;53.096;6.062;2023-08-12T07:21:05;22.55;;;12.60;;
52898;SDS011;38763;53.096;6.062;2023-08-12T07:23:30;23.75;;;12.48;;
52898;SDS011;38763;53.096;6.062;2023-08-12T07:25:56;22.10;;;11.15;;
52898;SDS011;38763;53.096;6.062;2023-08-12T07:28:22;24.77;;;12.45;;
52898;SDS011;38763;53.096;6.062;2023-08-12T07:30:48;23.90;;;11.25;;
52898;SDS011;38763;53.096;6.062;2023-08-12T07:33:14;22.80;;;12.40;;
52898;SDS011;38763;53.096;6.062;2023-08-12T07:35:40;20.65;;;11.35;;
52898;SDS011;38763;53.096;6.062;2023-08-12T07:38:06;25.30;;;11.63;;
52898;SDS011;38763;53.096;6.062;2023-08-12T07:40:32;21.67;;;10.63;;
52898;SDS011;38763;53.096;6.062;2023-08-12T07:42:58;22.65;;;10.75;;
52898;SDS011;38763;53.096;6.062;2023-08-12T07:45:23;23.63;;;11.18;;
52898;SDS011;38763;53.096;6.062;2023-08-12T07:47:49;22.42;;;10.35;;
52898;SDS011;38763;53.096;6.062;2023-08-12T07:50:15;24.08;;;11.55;;
52898;SDS011;38763;53.096;6.062;2023-08-12T07:52:41;20.13;;;10.27;;
52898;SDS011;38763;53.096;6.062;2023-08-12T07:55:07;24.00;;;11.52;;
52898;SDS011;38763;53.096;6.062;2023-08-12T07:57:33;24.45;;;11.50;;
52898;SDS011;38763;53.096;6.062;2023-08-12T07:59:58;19.50;;;11.13;;
52898;SDS011;38763;53.096;6.062;2023-08-12T08:02:24;22.13;;;11.02;;
52898;SDS011;38763;53.096;6.062;2023-08-12T08:04:50;20.85;;;11.57;;
52898;SDS011;38763;53.096;6.062;2023-08-12T08:07:16;24.95;;;11.88;;
52898;SDS011;38763;53.096;6.062;2023-08-12T08:09:42;26.23;;;12.95;;
52898;SDS011;38763;53.096;6.062;2023-08-12T08:12:08;24.02;;;12.85;;
52898;SDS011;38763;53.096;6.062;2023-08-12T08:14:35;24.15;;;12.75;;
52898;SDS011;38763;53.096;6.062;2023-08-12T08:17:01;24.27;;;12.80;;
52898;SDS011;38763;53.096;6.062;2023-08-12T08:19:27;27.33;;;13.45;;
52898;SDS011;38763;53.096;6.062;2023-08-12T08:21:52;24.45;;;13.30;;
52898;SDS011;38763;53.096;6.062;2023-08-12T08:24:18;27.95;;;14.57;;
52898;SDS011;38763;53.096;6.062;2023-08-12T08:26:44;29.42;;;15.48;;
52898;SDS011;38763;53.096;6.062;2023-08-12T08:29:12;28.95;;;15.68;;
52898;SDS011;38763;53.096;6.062;2023-08-12T08:31:38;29.02;;;16.00;;
52898;SDS011;38763;53.096;6.062;2023-08-12T08:34:04;35.28;;;16.25;;
52898;SDS011;38763;53.096;6.062;2023-08-12T08:36:29;31.35;;;16.15;;
52898;SDS011;38763;53.096;6.062;2023-08-12T08:38:55;34.15;;;16.90;;
52898;SDS011;38763;53.096;6.062;2023-08-12T08:41:21;35.50;;;16.63;;
52898;SDS011;38763;53.096;6.062;2023-08-12T08:43:47;31.77;;;17.88;;
52898;SDS011;38763;53.096;6.062;2023-08-12T08:46:16;33.58;;;18.40;;
52898;SDS011;38763;53.096;6.062;2023-08-12T08:48:42;34.42;;;18.60;;
52898;SDS011;38763;53.096;6.062;2023-08-12T08:51:09;33.63;;;18.48;;
52898;SDS011;38763;53.096;6.062;2023-08-12T08:53:39;35.33;;;18.02;;
52898;SDS011;38763;53.096;6.062;2023-08-12T08:56:06;36.97;;;19.00;;
52898;SDS011;38763;53.096;6.062;2023-08-12T08:58:33;34.25;;;18.25;;
52898;SDS011;38763;53.096;6.062;2023-08-12T09:00:59;30.98;;;18.33;;
52898;SDS011;38763;53.096;6.062;2023-08-12T09:03:26;34.00;;;18.83;;
52898;SDS011;38763;53.096;6.062;2023-08-12T09:05:52;37.60;;;19.52;;
52898;SDS011;38763;53.096;6.062;2023-08-12T09:08:20;39.17;;;20.55;;
52898;SDS011;38763;53.096;6.062;2023-08-12T09:10:47;40.20;;;20.55;;
52898;SDS011;38763;53.096;6.062;2023-08-12T09:13:14;39.60;;;20.20;;
52898;SDS011;38763;53.096;6.062;2023-08-12T09:15:40;38.38;;;19.75;;
52898;SDS011;38763;53.096;6.062;2023-08-12T09:18:06;34.63;;;19.45;;
52898;SDS011;38763;53.096;6.062;2023-08-12T09:20:32;40.88;;;20.08;;
52898;SDS011;38763;53.096;6.062;2023-08-12T09:22:58;35.55;;;19.92;;
52898;SDS011;38763;53.096;6.062;2023-08-12T09:25:28;39.38;;;20.80;;
52898;SDS011;38763;53.096;6.062;2023-08-12T09:27:55;35.72;;;20.27;;
52898;SDS011;38763;53.096;6.062;2023-08-12T09:30:23;39.30;;;20.98;;
52898;SDS011;38763;53.096;6.062;2023-08-12T09:32:58;41.58;;;20.95;;
52898;SDS011;38763;53.096;6.062;2023-08-12T09:35:30;38.45;;;20.60;;
52898;SDS011;38763;53.096;6.062;2023-08-12T09:38:02;41.88;;;20.73;;
52898;SDS011;38763;53.096;6.062;2023-08-12T09:40:30;36.70;;;19.58;;
52898;SDS011;38763;53.096;6.062;2023-08-12T09:42:56;44.20;;;21.67;;
52898;SDS011;38763;53.096;6.062;2023-08-12T09:45:25;32.25;;;18.73;;
52898;SDS011;38763;53.096;6.062;2023-08-12T09:47:55;34.50;;;19.60;;
52898;SDS011;38763;53.096;6.062;2023-08-12T09:50:21;42.10;;;20.83;;
52898;SDS011;38763;53.096;6.062;2023-08-12T09:52:48;32.47;;;19.63;;
52898;SDS011;38763;53.096;6.062;2023-08-12T09:55:18;35.83;;;20.48;;
52898;SDS011;38763;53.096;6.062;2023-08-12T09:57:46;33.35;;;18.45;;
52898;SDS011;38763;53.096;6.062;2023-08-12T10:00:14;34.55;;;18.38;;
52898;SDS011;38763;53.096;6.062;2023-08-12T10:02:45;26.42;;;16.17;;
52898;SDS011;38763;53.096;6.062;2023-08-12T10:05:13;23.13;;;14.40;;
52898;SDS011;38763;53.096;6.062;2023-08-12T10:07:43;25.70;;;14.07;;
52898;SDS011;38763;53.096;6.062;2023-08-12T10:10:10;22.80;;;13.88;;
52898;SDS011;38763;53.096;6.062;2023-08-12T10:12:38;20.67;;;13.32;;
52898;SDS011;38763;53.096;6.062;2023-08-12T10:15:07;21.27;;;13.43;;
52898;SDS011;38763;53.096;6.062;2023-08-12T10:17:34;22.15;;;13.10;;
52898;SDS011;38763;53.096;6.062;2023-08-12T10:20:00;21.15;;;12.85;;
52898;SDS011;38763;53.096;6.062;2023-08-12T10:22:29;24.17;;;12.50;;
52898;SDS011;38763;53.096;6.062;2023-08-12T10:24:56;21.45;;;12.73;;
52898;SDS011;38763;53.096;6.062;2023-08-12T10:27:24;16.42;;;11.40;;
52898;SDS011;38763;53.096;6.062;2023-08-12T10:29:50;18.92;;;11.23;;
52898;SDS011;38763;53.096;6.062;2023-08-12T10:32:16;15.13;;;9.73;;
52898;SDS011;38763;53.096;6.062;2023-08-12T10:34:42;11.85;;;7.60;;
52898;SDS011;38763;53.096;6.062;2023-08-12T10:37:08;10.57;;;4.07;;
52898;SDS011;38763;53.096;6.062;2023-08-12T10:39:36;9.20;;;3.10;;
52898;SDS011;38763;53.096;6.062;2023-08-12T10:42:02;10.27;;;2.50;;
52898;SDS011;38763;53.096;6.062;2023-08-12T10:44:43;8.52;;;2.33;;
52898;SDS011;38763;53.096;6.062;2023-08-12T10:47:19;10.60;;;2.38;;
52898;SDS011;38763;53.096;6.062;2023-08-12T10:49:48;9.18;;;2.55;;
52898;SDS011;38763;53.096;6.062;2023-08-12T10:52:31;7.45;;;2.35;;
52898;SDS011;38763;53.096;6.062;2023-08-12T10:55:17;7.68;;;2.65;;
52898;SDS011;38763;53.096;6.062;2023-08-12T10:57:44;7.72;;;2.30;;
52898;SDS011;38763;53.096;6.062;2023-08-12T11:00:14;9.25;;;2.85;;
52898;SDS011;38763;53.096;6.062;2023-08-12T11:02:50;6.05;;;2.33;;
52898;SDS011;38763;53.096;6.062;2023-08-12T11:05:18;9.50;;;3.13;;
52898;SDS011;38763;53.096;6.062;2023-08-12T11:07:57;8.93;;;2.72;;
52898;SDS011;38763;53.096;6.062;2023-08-12T11:10:26;8.70;;;2.70;;
52898;SDS011;38763;53.096;6.062;2023-08-12T11:12:55;10.82;;;2.92;;
52898;SDS011;38763;53.096;6.062;2023-08-12T11:15:29;8.20;;;3.08;;
52898;SDS011;38763;53.096;6.062;2023-08-12T11:18:06;9.35;;;3.10;;
52898;SDS011;38763;53.096;6.062;2023-08-12T11:20:33;8.60;;;3.25;;
52898;SDS011;38763;53.096;6.062;2023-08-12T11:23:00;8.77;;;2.80;;
52898;SDS011;38763;53.096;6.062;2023-08-12T11:25:30;10.88;;;3.08;;
52898;SDS011;38763;53.096;6.062;2023-08-12T11:27:57;10.60;;;2.95;;
52898;SDS011;38763;53.096;6.062;2023-08-12T11:30:23;7.10;;;2.35;;
52898;SDS011;38763;53.096;6.062;2023-08-12T11:32:50;10.85;;;2.75;;
52898;SDS011;38763;53.096;6.062;2023-08-12T11:35:21;9.70;;;2.20;;
52898;SDS011;38763;53.096;6.062;2023-08-12T11:37:48;8.27;;;2.33;;
52898;SDS011;38763;53.096;6.062;2023-08-12T11:40:16;10.82;;;3.10;;
52898;SDS011;38763;53.096;6.062;2023-08-12T11:42:43;8.05;;;2.58;;
52898;SDS011;38763;53.096;6.062;2023-08-12T11:45:10;7.90;;;2.78;;
52898;SDS011;38763;53.096;6.062;2023-08-12T11:47:37;8.90;;;2.85;;
52898;SDS011;38763;53.096;6.062;2023-08-12T11:50:05;9.80;;;2.97;;
52898;SDS011;38763;53.096;6.062;2023-08-12T11:52:31;10.18;;;3.13;;
52898;SDS011;38763;53.096;6.062;2023-08-12T11:54:57;11.25;;;3.40;;
52898;SDS011;38763;53.096;6.062;2023-08-12T11:57:23;7.75;;;3.33;;
52898;SDS011;38763;53.096;6.062;2023-08-12T11:59:50;9.50;;;3.05;;
52898;SDS011;38763;53.096;6.062;2023-08-12T12:02:16;10.25;;;2.95;;
52898;SDS011;38763;53.096;6.062;2023-08-12T12:04:42;9.77;;;3.00;;
52898;SDS011;38763;53.096;6.062;2023-08-12T12:10:03;11.05;;;3.42;;
52898;SDS011;38763;53.096;6.062;2023-08-12T12:12:30;9.38;;;3.50;;
52898;SDS011;38763;53.096;6.062;2023-08-12T12:15:02;9.63;;;3.58;;
52898;SDS011;38763;53.096;6.062;2023-08-12T12:17:29;9.35;;;2.92;;
52898;SDS011;38763;53.096;6.062;2023-08-12T12:19:55;8.95;;;3.00;;
52898;SDS011;38763;53.096;6.062;2023-08-12T12:27:23;7.30;;;2.47;;
52898;SDS011;38763;53.096;6.062;2023-08-12T12:29:49;9.25;;;3.10;;
52898;SDS011;38763;53.096;6.062;2023-08-12T12:32:17;9.27;;;2.80;;
52898;SDS011;38763;53.096;6.062;2023-08-12T12:34:44;8.02;;;2.60;;
52898;SDS011;38763;53.096;6.062;2023-08-12T12:37:10;9.40;;;2.80;;
52898;SDS011;38763;53.096;6.062;2023-08-12T12:39:35;10.02;;;2.85;;
52898;SDS011;38763;53.096;6.062;2023-08-12T12:42:01;11.57;;;3.10;;
52898;SDS011;38763;53.096;6.062;2023-08-12T12:44:27;8.95;;;2.65;;
52898;SDS011;38763;53.096;6.062;2023-08-12T12:46:52;8.65;;;2.60;;
52898;SDS011;38763;53.096;6.062;2023-08-12T12:49:19;7.13;;;2.50;;
52898;SDS011;38763;53.096;6.062;2023-08-12T12:51:45;8.50;;;2.65;;
52898;SDS011;38763;53.096;6.062;2023-08-12T12:54:10;9.30;;;2.58;;
52898;SDS011;38763;53.096;6.062;2023-08-12T12:56:36;11.25;;;2.88;;
52898;SDS011;38763;53.096;6.062;2023-08-12T12:59:02;11.07;;;3.05;;
52898;SDS011;38763;53.096;6.062;2023-08-12T13:01:27;5.75;;;2.33;;
52898;SDS011;38763;53.096;6.062;2023-08-12T13:03:53;13.07;;;3.10;;
52898;SDS011;38763;53.096;6.062;2023-08-12T13:06:18;13.43;;;2.78;;
52898;SDS011;38763;53.096;6.062;2023-08-12T13:08:44;9.05;;;2.92;;
52898;SDS011;38763;53.096;6.062;2023-08-12T13:11:10;10.27;;;2.83;;
52898;SDS011;38763;53.096;6.062;2023-08-12T13:13:35;14.50;;;3.00;;
52898;SDS011;38763;53.096;6.062;2023-08-12T13:16:01;8.82;;;2.63;;
52898;SDS011;38763;53.096;6.062;2023-08-12T13:18:27;11.25;;;2.70;;
52898;SDS011;38763;53.096;6.062;2023-08-12T13:20:53;7.50;;;2.30;;
52898;SDS011;38763;53.096;6.062;2023-08-12T13:23:18;10.52;;;2.53;;
52898;SDS011;38763;53.096;6.062;2023-08-12T13:25:44;10.20;;;2.10;;
52898;SDS011;38763;53.096;6.062;2023-08-12T13:28:10;10.40;;;2.10;;
52898;SDS011;38763;53.096;6.062;2023-08-12T13:30:35;10.13;;;2.45;;
52898;SDS011;38763;53.096;6.062;2023-08-12T13:33:02;9.82;;;2.28;;
52898;SDS011;38763;53.096;6.062;2023-08-12T13:35:28;9.38;;;2.00;;
52898;SDS011;38763;53.096;6.062;2023-08-12T13:37:54;9.95;;;2.35;;
52898;SDS011;38763;53.096;6.062;2023-08-12T13:40:20;9.73;;;2.22;;
52898;SDS011;38763;53.096;6.062;2023-08-12T13:42:45;10.85;;;2.40;;
52898;SDS011;38763;53.096;6.062;2023-08-12T13:45:12;12.50;;;2.15;;
52898;SDS011;38763;53.096;6.062;2023-08-12T13:47:38;7.40;;;2.17;;
52898;SDS011;38763;53.096;6.062;2023-08-12T13:50:04;9.55;;;1.98;;
52898;SDS011;38763;53.096;6.062;2023-08-12T13:52:30;7.25;;;1.60;;
52898;SDS011;38763;53.096;6.062;2023-08-12T13:54:56;10.48;;;2.28;;
52898;SDS011;38763;53.096;6.062;2023-08-12T13:57:22;8.35;;;2.03;;
52898;SDS011;38763;53.096;6.062;2023-08-12T13:59:47;9.00;;;2.10;;
52898;SDS011;38763;53.096;6.062;2023-08-12T14:02:13;9.63;;;1.98;;
52898;SDS011;38763;53.096;6.062;2023-08-12T14:04:39;7.60;;;1.73;;
52898;SDS011;38763;53.096;6.062;2023-08-12T14:07:05;9.15;;;1.85;;
52898;SDS011;38763;53.096;6.062;2023-08-12T14:09:31;8.50;;;1.90;;
52898;SDS011;38763;53.096;6.062;2023-08-12T14:11:57;9.50;;;2.00;;
52898;SDS011;38763;53.096;6.062;2023-08-12T14:14:23;8.02;;;1.83;;
52898;SDS011;38763;53.096;6.062;2023-08-12T14:16:52;7.57;;;1.65;;
52898;SDS011;38763;53.096;6.062;2023-08-12T14:19:18;6.57;;;1.77;;
52898;SDS011;38763;53.096;6.062;2023-08-12T14:21:44;9.65;;;1.90;;
52898;SDS011;38763;53.096;6.062;2023-08-12T14:24:09;9.25;;;2.15;;
52898;SDS011;38763;53.096;6.062;2023-08-12T14:26:35;7.35;;;2.00;;
52898;SDS011;38763;53.096;6.062;2023-08-12T14:29:01;8.40;;;1.92;;
52898;SDS011;38763;53.096;6.062;2023-08-12T14:31:27;11.02;;;2.13;;
52898;SDS011;38763;53.096;6.062;2023-08-12T14:33:52;8.73;;;1.90;;
52898;SDS011;38763;53.096;6.062;2023-08-12T14:36:18;8.15;;;1.90;;
52898;SDS011;38763;53.096;6.062;2023-08-12T14:38:43;9.50;;;1.83;;
52898;SDS011;38763;53.096;6.062;2023-08-12T14:41:09;9.57;;;2.10;;
52898;SDS011;38763;53.096;6.062;2023-08-12T14:43:35;11.82;;;2.50;;
52898;SDS011;38763;53.096;6.062;2023-08-12T14:46:02;9.43;;;2.08;;